Time;durP1;ratioP1;P1;durP2;ratioP2;P2;SDS_P1;SDS_P2;PMS_P1;PMS_P2;Temp;Humidity;BMP_temperature;BMP_pressure;BME280_temperature;BME280_humidity;BME280_pressure;Samples;Min_cycle;Max_cycle;Signal;HPM_P1;HPM_P2
2021/11/26 00:01:05;;;;;;;2.90;1.30;;;;;;;9.74;57.74;100688.85;117487;1186;21860;-59
2021/11/26 00:03:34;;;;;;;4.80;1.90;;;;;;;9.77;57.85;100682.88;117335;1185;23448;-64
2021/11/26 00:06:02;;;;;;;3.90;1.30;;;;;;;9.79;57.87;100677.61;117266;1183;23283;-50
2021/11/26 00:08:32;;;;;;;2.50;1.30;;;;;;;9.83;57.98;100679.70;117272;1185;24142;-50
2021/11/26 00:11:01;;;;;;;2.30;1.20;;;;;;;9.86;57.84;100674.45;117341;1185;23484;-50
2021/11/26 00:13:32;;;;;;;3.40;1.50;;;;;;;9.86;57.82;100669.70;117288;1186;22156;-64
2021/11/26 00:16:08;;;;;;;3.50;1.60;;;;;;;9.88;57.87;100666.02;117319;1182;21851;-64
2021/11/26 00:18:59;;;;;;;4.40;1.70;;;;;;;9.89;57.79;100662.33;117266;1185;22905;-64
2021/11/26 00:21:27;;;;;;;5.90;1.70;;;;;;;9.88;57.92;100660.76;117385;1182;21989;-50
2021/11/26 00:23:56;;;;;;;3.70;1.20;;;;;;;9.85;57.98;100660.77;117413;1180;22945;-64
2021/11/26 00:26:24;;;;;;;3.30;1.40;;;;;;;9.84;58.04;100660.08;117327;1186;21851;-50
2021/11/26 00:28:52;;;;;;;2.60;1.40;;;;;;;9.88;57.86;100658.30;117212;1182;22624;-63
2021/11/26 00:31:20;;;;;;;2.80;1.40;;;;;;;9.90;57.85;100657.41;117302;1186;23590;-64
2021/11/26 00:33:49;;;;;;;2.00;1.20;;;;;;;9.93;57.78;100652.67;117309;1185;21862;-51
2021/11/26 00:36:25;;;;;;;2.50;1.50;;;;;;;9.97;57.72;100644.58;117357;1186;21855;-64
2021/11/26 00:38:54;;;;;;;3.00;1.20;;;;;;;9.98;57.82;100640.19;117273;1182;21865;-50
2021/11/26 00:41:22;;;;;;;6.80;2.20;;;;;;;10.00;57.77;100637.38;117350;1182;22603;-50
2021/11/26 00:43:50;;;;;;;4.30;1.30;;;;;;;10.02;57.97;100638.95;117494;1183;23442;-64
2021/11/26 00:46:19;;;;;;;3.20;1.20;;;;;;;10.05;57.79;100644.55;117449;1183;21858;-52
2021/11/26 00:48:47;;;;;;;2.50;1.20;;;;;;;10.07;57.74;100647.16;117441;1179;23448;-64
2021/11/26 00:51:16;;;;;;;3.40;1.20;;;;;;;10.07;57.76;100646.63;117329;1185;24303;-63
2021/11/26 00:53:44;;;;;;;2.50;0.90;;;;;;;10.09;57.88;100643.47;117381;1180;22619;-50
2021/11/26 00:56:12;;;;;;;4.20;1.40;;;;;;;10.10;57.88;100634.33;117334;1185;22102;-50
2021/11/26 00:58:41;;;;;;;4.00;1.30;;;;;;;10.11;57.76;100630.66;117324;1179;23442;-64
2021/11/26 01:01:09;;;;;;;3.00;1.50;;;;;;;10.10;57.91;100621.36;117511;1183;21848;-64
2021/11/26 01:03:38;;;;;;;4.00;1.20;;;;;;;10.11;57.75;100620.66;117375;1183;21842;-50
2021/11/26 01:06:15;;;;;;;1.90;1.00;;;;;;;10.10;57.73;100615.58;117281;1179;22877;-51
2021/11/26 01:08:44;;;;;;;3.30;1.20;;;;;;;10.08;57.83;100617.87;117388;1177;22956;-50
2021/11/26 01:11:12;;;;;;;2.00;1.00;;;;;;;10.04;57.81;100621.57;117374;1176;21854;-62
2021/11/26 01:13:41;;;;;;;2.50;0.90;;;;;;;10.07;57.87;100628.56;117316;1183;23569;-63
2021/11/26 01:16:09;;;;;;;2.10;1.20;;;;;;;10.09;58.02;100636.98;117363;1185;21854;-63
2021/11/26 01:18:38;;;;;;;2.00;0.90;;;;;;;10.11;57.86;100639.23;117423;1182;23483;-50
2021/11/26 01:21:07;;;;;;;6.50;1.90;;;;;;;10.14;58.06;100639.93;117447;1183;23445;-51
2021/11/26 01:23:36;;;;;;;3.90;1.30;;;;;;;10.15;57.90;100639.23;117487;1183;21927;-63
2021/11/26 01:26:05;;;;;;;2.90;1.20;;;;;;;10.15;57.68;100629.75;117505;1185;21961;-50
2021/11/26 01:28:35;;;;;;;2.30;1.20;;;;;;;10.10;57.87;100625.93;117410;1182;22691;-50
2021/11/26 01:31:03;;;;;;;2.30;1.30;;;;;;;10.08;57.79;100628.39;117352;1182;21854;-64
2021/11/26 01:33:37;;;;;;;2.60;0.90;;;;;;;10.06;57.93;100625.60;117411;1176;23474;-64
2021/11/26 01:36:05;;;;;;;3.60;1.40;;;;;;;10.04;57.77;100625.96;117373;1180;22902;-56
2021/11/26 01:38:33;;;;;;;4.80;1.50;;;;;;;10.04;57.81;100623.16;117408;1184;21863;-63
2021/11/26 01:41:04;;;;;;;3.20;1.30;;;;;;;10.03;57.67;100621.06;117391;1185;23474;-64
2021/11/26 01:43:32;;;;;;;4.00;1.30;;;;;;;10.00;57.76;100607.05;117308;1182;23449;-64
2021/11/26 01:46:08;;;;;;;4.20;1.20;;;;;;;9.99;57.72;100601.27;117397;1183;23083;-51
2021/11/26 01:48:40;;;;;;;3.80;1.40;;;;;;;9.97;57.81;100591.98;117089;1187;21857;-64
2021/11/26 01:51:09;;;;;;;3.30;1.10;;;;;;;9.96;57.81;100587.61;117305;1185;21860;-64
2021/11/26 01:53:38;;;;;;;3.10;1.60;;;;;;;9.94;57.80;100587.45;117414;1184;21854;-63
2021/11/26 01:56:06;;;;;;;3.60;1.60;;;;;;;9.90;57.77;100588.36;117288;1185;23448;-50
2021/11/26 01:58:35;;;;;;;5.00;1.80;;;;;;;9.88;57.72;100597.14;117342;1183;23452;-63
2021/11/26 02:01:04;;;;;;;3.70;1.50;;;;;;;9.85;57.71;100606.08;117280;1182;21984;-50
2021/11/26 02:03:33;;;;;;;4.30;2.10;;;;;;;9.83;57.68;100613.28;117334;1185;21854;-51
2021/11/26 02:06:02;;;;;;;5.00;1.70;;;;;;;9.81;57.73;100616.44;117398;1185;21927;-50
2021/11/26 02:08:30;;;;;;;3.70;1.70;;;;;;;9.77;57.77;100610.67;117339;1182;24216;-64
2021/11/26 02:10:59;;;;;;;3.70;1.80;;;;;;;9.79;57.63;100601.38;117327;1185;23484;-63
2021/11/26 02:13:27;;;;;;;5.30;1.40;;;;;;;9.78;57.70;100591.76;117307;1182;21862;-50
2021/11/26 02:15:59;;;;;;;3.10;1.50;;;;;;;9.76;57.84;100587.90;117440;1182;23465;-51
2021/11/26 02:18:27;;;;;;;4.90;1.80;;;;;;;9.76;57.71;100587.02;117297;1182;23573;-63
2021/11/26 02:20:55;;;;;;;3.90;1.40;;;;;;;9.75;57.73;100592.81;117393;1183;23471;-50
2021/11/26 02:23:25;;;;;;;3.80;1.40;;;;;;;9.75;57.91;100594.20;117329;1176;23449;-50
2021/11/26 02:25:54;;;;;;;3.20;1.40;;;;;;;9.76;57.64;100594.55;117471;1182;21855;-52
2021/11/26 02:28:23;;;;;;;3.10;1.50;;;;;;;9.76;57.89;100580.71;117392;1183;22651;-51
2021/11/26 02:30:51;;;;;;;4.00;1.40;;;;;;;9.81;57.64;100576.48;117366;1185;23452;-62
2021/11/26 02:33:21;;;;;;;4.60;1.50;;;;;;;9.82;57.79;100563.51;117424;1182;23636;-63
2021/11/26 02:35:51;;;;;;;5.10;1.40;;;;;;;9.84;57.71;100564.73;117512;1182;22919;-63
2021/11/26 02:38:21;;;;;;;3.70;1.40;;;;;;;9.84;57.83;100562.98;117348;1182;23452;-64
2021/11/26 02:40:50;;;;;;;4.30;1.60;;;;;;;9.85;57.77;100559.81;117393;1182;22928;-49
2021/11/26 02:43:18;;;;;;;3.70;1.60;;;;;;;9.86;57.68;100553.85;117428;1182;23640;-50
2021/11/26 02:45:46;;;;;;;3.70;1.50;;;;;;;9.87;57.62;100555.59;117406;1183;23334;-51
2021/11/26 02:48:15;;;;;;;6.30;1.60;;;;;;;9.84;57.87;100561.05;117281;1185;21867;-50
2021/11/26 02:50:44;;;;;;;3.80;1.50;;;;;;;9.71;58.28;100562.52;117351;1182;23475;-50
2021/11/26 02:53:18;;;;;;;4.40;1.60;;;;;;;9.87;57.83;100559.98;117320;1186;21854;-64
2021/11/26 02:55:46;;;;;;;3.30;1.70;;;;;;;9.89;57.80;100561.90;117397;1182;22341;-58
2021/11/26 02:58:15;;;;;;;3.90;1.70;;;;;;;9.88;57.81;100558.75;117357;1185;21865;-63
2021/11/26 03:00:46;;;;;;;3.80;1.40;;;;;;;9.82;57.88;100555.98;117354;1186;23497;-50
2021/11/26 03:03:14;;;;;;;4.20;1.70;;;;;;;9.68;58.06;100561.49;117138;1185;23472;-50
2021/11/26 03:05:43;;;;;;;3.30;1.80;;;;;;;9.58;58.29;100558.56;117313;1180;22977;-50
2021/11/26 03:08:11;;;;;;;2.70;1.60;;;;;;;9.56;58.35;100560.33;117318;1182;22712;-51
2021/11/26 03:10:39;;;;;;;4.00;1.40;;;;;;;9.54;58.45;100553.33;117363;1182;21863;-62
2021/11/26 03:13:10;;;;;;;;;;;;;;;9.53;58.49;100556.31;117414;1183;22867;-51
2021/11/26 03:15:39;;;;;;;3.60;1.30;;;;;;;9.52;58.44;100557.37;117410;1182;21850;-63
2021/11/26 03:18:08;;;;;;;1.90;1.30;;;;;;;9.51;58.38;100563.15;117352;1185;22408;-50
2021/11/26 03:20:37;;;;;;;3.00;1.30;;;;;;;9.49;58.32;100569.45;117475;1182;22502;-63
2021/11/26 03:23:05;;;;;;;4.80;1.70;;;;;;;9.48;58.48;100574.39;117472;1183;23455;-50
2021/11/26 03:25:33;;;;;;;5.90;1.50;;;;;;;9.47;58.52;100576.31;117363;1182;21854;-50
2021/11/26 03:28:02;;;;;;;3.10;1.50;;;;;;;9.48;58.33;100573.16;117446;1182;23158;-62
2021/11/26 03:30:30;;;;;;;7.80;2.10;;;;;;;9.48;58.25;100567.73;117454;1182;23457;-50
2021/11/26 03:33:00;;;;;;;4.50;1.20;;;;;;;9.49;58.49;100569.65;117455;1184;21895;-50
2021/11/26 03:35:33;;;;;;;3.60;1.40;;;;;;;9.70;58.04;100560.95;117247;1182;23461;-63
2021/11/26 03:38:02;;;;;;;5.70;1.70;;;;;;;9.76;58.00;100553.20;117270;1185;23452;-63
2021/11/26 03:40:30;;;;;;;2.60;1.60;;;;;;;9.80;57.82;100551.42;117334;1182;21858;-50
2021/11/26 03:42:59;;;;;;;3.80;1.80;;;;;;;9.81;57.78;100551.60;117294;1182;21858;-50
2021/11/26 03:45:28;;;;;;;3.60;1.80;;;;;;;9.82;57.76;100551.77;117266;1185;21845;-50
2021/11/26 03:47:57;;;;;;;3.50;1.80;;;;;;;9.84;57.78;100551.59;117373;1185;22873;-63
2021/11/26 03:50:28;;;;;;;2.60;1.30;;;;;;;9.86;57.78;100558.06;117271;1185;22892;-62
2021/11/26 03:52:56;;;;;;;5.10;2.20;;;;;;;9.87;57.66;100561.02;117363;1185;24172;-64
2021/11/26 03:55:27;;;;;;;5.60;2.00;;;;;;;9.89;57.78;100557.70;117337;1182;22925;-63
2021/11/26 03:57:56;;;;;;;;;;;;;;;9.90;57.64;100553.84;117421;1185;23794;-50
2021/11/26 04:00:24;;;;;;;4.00;1.80;;;;;;;9.92;57.67;100552.42;117327;1182;23667;-63
2021/11/26 04:02:52;;;;;;;3.10;1.90;;;;;;;9.90;57.71;100552.26;117330;1185;22208;-63
2021/11/26 04:05:21;;;;;;;2.90;2.00;;;;;;;9.91;57.62;100551.36;117423;1185;21854;-63
2021/11/26 04:07:49;;;;;;;3.40;1.90;;;;;;;9.92;57.68;100545.92;117411;1179;21854;-63
2021/11/26 04:10:18;;;;;;;4.20;2.00;;;;;;;9.94;57.81;100546.96;117431;1182;21876;-63
2021/11/26 04:12:47;;;;;;;4.40;2.10;;;;;;;9.94;57.75;100545.38;117301;1185;23485;-50
2021/11/26 04:15:15;;;;;;;2.70;1.80;;;;;;;9.94;57.70;100540.64;117472;1182;22873;-63
2021/11/26 04:17:46;;;;;;;3.90;2.00;;;;;;;9.96;57.71;100542.04;117348;1182;22941;-63
2021/11/26 04:20:15;;;;;;;3.50;2.00;;;;;;;9.93;57.83;100543.82;117301;1185;23471;-63
2021/11/26 04:22:44;;;;;;;3.10;2.10;;;;;;;9.90;57.93;100535.77;117363;1185;22921;-50
2021/11/26 04:25:14;;;;;;;3.20;2.00;;;;;;;9.98;57.53;100536.59;117377;1185;23449;-63
2021/11/26 04:27:42;;;;;;;4.50;2.40;;;;;;;10.00;57.66;100532.90;117306;1185;22876;-51
2021/11/26 04:30:11;;;;;;;4.40;2.20;;;;;;;9.98;57.65;100528.70;117328;1182;24171;-63
2021/11/26 04:32:39;;;;;;;3.30;1.80;;;;;;;9.98;57.54;100532.20;117395;1185;21854;-64
2021/11/26 04:35:09;;;;;;;6.20;2.50;;;;;;;10.01;57.60;100523.06;117342;1182;21863;-50
2021/11/26 04:37:37;;;;;;;5.20;2.30;;;;;;;10.00;57.51;100533.25;117367;1176;21860;-63
2021/11/26 04:40:08;;;;;;;4.40;1.90;;;;;;;10.00;57.60;100527.45;117437;1182;23547;-64
2021/11/26 04:42:37;;;;;;;10.50;2.40;;;;;;;9.98;57.59;100531.67;117564;1179;21853;-49
2021/11/26 04:45:06;;;;;;;3.30;2.50;;;;;;;9.95;57.83;100532.93;117500;1183;21854;-50
2021/11/26 04:47:34;;;;;;;3.10;2.10;;;;;;;9.98;57.80;100532.91;117425;1182;22644;-65
2021/11/26 04:50:04;;;;;;;3.40;2.40;;;;;;;10.03;57.62;100528.83;117414;1179;23448;-49
2021/11/26 04:52:32;;;;;;;3.90;2.30;;;;;;;9.98;57.73;100525.89;117462;1183;22937;-50
2021/11/26 04:55:01;;;;;;;4.00;2.10;;;;;;;10.00;57.68;100519.21;117358;1185;22986;-49
2021/11/26 04:57:29;;;;;;;5.00;2.50;;;;;;;10.02;57.70;100517.45;117326;1182;23478;-65
2021/11/26 04:59:57;;;;;;;7.10;2.50;;;;;;;10.00;57.52;100515.20;117446;1183;22644;-50
2021/11/26 05:02:26;;;;;;;4.00;2.10;;;;;;;10.00;57.64;100513.77;117304;1185;21851;-65
2021/11/26 05:04:55;;;;;;;5.40;2.10;;;;;;;10.00;57.83;100517.48;117366;1182;24172;-49
2021/11/26 05:07:24;;;;;;;3.80;2.20;;;;;;;9.99;57.58;100517.64;117324;1182;22517;-50
2021/11/26 05:10:05;;;;;;;4.30;2.40;;;;;;;10.01;57.82;100517.13;117316;1186;22807;-64
2021/11/26 05:12:37;;;;;;;3.90;2.00;;;;;;;9.99;57.58;100513.61;117376;1185;22828;-64
2021/11/26 05:15:09;;;;;;;5.50;3.10;;;;;;;9.98;57.64;100516.77;117338;1182;23472;-49
2021/11/26 05:17:54;;;;;;;4.40;2.30;;;;;;;9.97;57.70;100523.09;117480;1182;23451;-64
2021/11/26 05:20:23;;;;;;;3.60;2.30;;;;;;;9.98;57.70;100516.95;117223;1185;23537;-49
2021/11/26 05:22:51;;;;;;;6.40;2.80;;;;;;;9.99;57.77;100513.44;117642;1182;24165;-49
2021/11/26 05:25:20;;;;;;;4.60;2.50;;;;;;;9.99;57.83;100511.68;117418;1182;23451;-64
2021/11/26 05:27:48;;;;;;;5.50;2.40;;;;;;;9.97;57.68;100512.05;117461;1185;21857;-49
2021/11/26 05:30:16;;;;;;;3.60;2.40;;;;;;;9.96;57.63;100513.45;117401;1183;23448;-49
2021/11/26 05:32:47;;;;;;;4.60;2.60;;;;;;;9.93;57.61;100516.12;117287;1183;22921;-63
2021/11/26 05:35:16;;;;;;;4.30;2.30;;;;;;;9.92;57.67;100513.33;117343;1183;23027;-64
2021/11/26 05:37:46;;;;;;;3.60;2.20;;;;;;;9.91;57.65;100506.66;117480;1176;22840;-50
2021/11/26 05:40:15;;;;;;;5.80;2.30;;;;;;;9.92;57.66;100502.45;117346;1186;21859;-62
2021/11/26 05:42:44;;;;;;;4.80;2.40;;;;;;;9.97;57.70;100502.23;117322;1182;21980;-50
2021/11/26 05:45:13;;;;;;;5.50;2.00;;;;;;;10.02;57.87;100501.49;117391;1184;22884;-50
2021/11/26 05:47:42;;;;;;;8.00;3.60;;;;;;;10.07;57.73;100502.51;117380;1176;21855;-63
2021/11/26 05:50:12;;;;;;;7.60;3.30;;;;;;;10.13;57.72;100506.15;117409;1182;23483;-50
2021/11/26 05:52:42;;;;;;;3.90;2.40;;;;;;;10.18;57.74;100511.00;117277;1182;23547;-50
2021/11/26 05:55:12;;;;;;;5.00;1.60;;;;;;;10.24;57.82;100511.48;117308;1184;22006;-51
2021/11/26 05:57:41;;;;;;;3.90;1.40;;;;;;;10.29;57.84;100510.73;117447;1185;23452;-64
2021/11/26 06:00:11;;;;;;;3.10;1.20;;;;;;;10.37;57.82;100508.56;117432;1182;23467;-64
2021/11/26 06:02:39;;;;;;;2.80;1.30;;;;;;;10.46;57.78;100505.18;119506;1179;23465;-50
2021/11/26 06:05:08;;;;;;;2.20;1.10;;;;;;;10.52;57.80;100502.48;117304;1185;22834;-64
2021/11/26 06:07:37;;;;;;;2.50;1.30;;;;;;;10.56;57.87;100504.02;117593;1182;24150;-51
2021/11/26 06:10:08;;;;;;;1.90;1.00;;;;;;;10.60;57.81;100505.92;118831;1182;23145;-64
2021/11/26 06:12:42;;;;;;;2.70;1.40;;;;;;;10.65;57.71;100503.23;117500;1182;21855;-64
2021/11/26 06:15:12;;;;;;;3.40;1.40;;;;;;;10.69;57.75;100503.19;117388;1185;21859;-50
2021/11/26 06:17:41;;;;;;;2.80;1.00;;;;;;;10.74;57.89;100498.75;117462;1182;22921;-64
2021/11/26 06:20:10;;;;;;;3.70;1.50;;;;;;;10.78;57.94;100495.20;117415;1185;21906;-64
2021/11/26 06:22:40;;;;;;;5.90;2.90;;;;;;;10.82;57.61;100492.33;117475;1184;21951;-51
2021/11/26 06:25:10;;;;;;;8.40;3.80;;;;;;;10.86;57.85;100490.53;117285;1185;23445;-51
2021/11/26 06:27:38;;;;;;;5.00;1.90;;;;;;;10.91;57.96;100496.80;117400;1185;21888;-50
2021/11/26 06:30:07;;;;;;;4.80;2.70;;;;;;;10.94;57.72;100492.03;117333;1185;21851;-64
2021/11/26 06:32:36;;;;;;;2.70;1.50;;;;;;;10.96;57.80;100488.48;117322;1182;22931;-62
2021/11/26 06:35:05;;;;;;;3.20;1.70;;;;;;;10.99;57.81;100488.80;117455;1182;21844;-51
2021/11/26 06:37:34;;;;;;;5.00;1.20;;;;;;;11.02;57.95;100490.35;117446;1182;21858;-50
2021/11/26 06:40:04;;;;;;;3.30;1.30;;;;;;;11.06;57.89;100498.20;117107;1187;21950;-64
2021/11/26 06:42:37;;;;;;;4.50;1.30;;;;;;;11.08;57.78;100499.23;117315;1182;21993;-64
2021/11/26 06:45:07;;;;;;;3.30;1.30;;;;;;;11.10;57.97;100501.13;117338;1183;23557;-51
2021/11/26 06:47:38;;;;;;;2.50;1.20;;;;;;;11.13;57.96;100498.99;117395;1185;21917;-62
2021/11/26 06:50:08;;;;;;;3.30;1.60;;;;;;;11.16;57.88;100492.63;117360;1185;21854;-62
2021/11/26 06:52:36;;;;;;;2.40;1.20;;;;;;;11.19;57.76;100492.60;117401;1182;23621;-50
2021/11/26 06:55:07;;;;;;;8.00;2.50;;;;;;;11.22;57.71;100496.95;117382;1182;23903;-50
2021/11/26 06:57:36;;;;;;;5.90;1.80;;;;;;;11.24;57.90;100493.75;117572;1185;21860;-50
2021/11/26 07:00:06;;;;;;;4.30;1.40;;;;;;;11.28;57.86;100490.35;117374;1185;21881;-51
2021/11/26 07:02:35;;;;;;;3.40;1.50;;;;;;;11.31;57.84;100493.30;117345;1184;24225;-52
2021/11/26 07:05:05;;;;;;;3.70;1.50;;;;;;;11.34;57.70;100490.11;117339;1185;22894;-50
2021/11/26 07:07:33;;;;;;;4.50;1.60;;;;;;;11.39;57.87;100491.09;117367;1182;22625;-64
2021/11/26 07:10:01;;;;;;;2.90;1.50;;;;;;;11.42;57.95;100481.91;117280;1185;23907;-49
2021/11/26 07:12:30;;;;;;;4.50;1.50;;;;;;;11.46;57.80;100474.83;117364;1186;21966;-50
2021/11/26 07:14:58;;;;;;;4.70;1.70;;;;;;;11.51;57.72;100473.52;117465;1186;21980;-63
2021/11/26 07:17:30;;;;;;;3.00;1.60;;;;;;;11.56;57.81;100474.52;117315;1182;23151;-63
2021/11/26 07:19:58;;;;;;;5.10;1.60;;;;;;;11.61;57.91;100472.33;117419;1182;21857;-64
2021/11/26 07:22:26;;;;;;;5.50;2.20;;;;;;;11.66;57.75;100480.16;117300;1185;21854;-50
2021/11/26 07:24:54;;;;;;;4.30;1.80;;;;;;;11.72;57.98;100479.02;117293;1185;22922;-63
2021/11/26 07:27:23;;;;;;;5.60;2.30;;;;;;;11.78;57.96;100484.39;117296;1189;23455;-62
2021/11/26 07:29:52;;;;;;;8.40;2.20;;;;;;;11.82;57.84;100484.48;117342;1182;21858;-51
2021/11/26 07:32:20;;;;;;;6.50;2.80;;;;;;;11.86;57.84;100483.20;117437;1185;21857;-50
2021/11/26 07:34:50;;;;;;;4.40;2.50;;;;;;;11.88;57.89;100483.68;117471;1182;23451;-51
2021/11/26 07:37:18;;;;;;;4.60;2.00;;;;;;;11.92;57.79;100485.38;117347;1185;21884;-63
2021/11/26 07:39:47;;;;;;;6.70;2.40;;;;;;;11.97;57.69;100489.35;117367;1186;22651;-64
2021/11/26 07:42:16;;;;;;;8.80;2.60;;;;;;;12.00;57.87;100488.27;117340;1182;23455;-50
2021/11/26 07:44:47;;;;;;;5.00;1.90;;;;;;;12.03;57.89;100484.34;117299;1185;21848;-50
2021/11/26 07:47:17;;;;;;;4.50;2.50;;;;;;;12.08;57.84;100486.56;117341;1184;21855;-50
2021/11/26 07:49:46;;;;;;;3.70;2.20;;;;;;;12.11;57.87;100485.46;117305;1176;21858;-50
2021/11/26 07:52:15;;;;;;;4.60;2.10;;;;;;;12.15;57.90;100484.33;117351;1185;21855;-49
2021/11/26 07:54:43;;;;;;;4.80;2.40;;;;;;;12.20;57.80;100487.42;117525;1177;21856;-63
2021/11/26 07:57:12;;;;;;;3.80;2.30;;;;;;;12.24;57.80;100487.36;117348;1185;21855;-50
2021/11/26 07:59:41;;;;;;;5.30;2.30;;;;;;;12.27;57.88;100489.58;117440;1186;21867;-64
2021/11/26 08:02:13;;;;;;;3.90;1.80;;;;;;;12.31;57.83;100486.34;117435;1180;22964;-63
2021/11/26 08:04:42;;;;;;;5.90;2.10;;;;;;;12.35;57.80;100485.75;117344;1183;24168;-50
2021/11/26 08:07:10;;;;;;;3.90;1.70;;;;;;;12.37;57.81;100480.97;117467;1185;21852;-52
2021/11/26 08:09:39;;;;;;;3.60;2.00;;;;;;;12.42;57.76;100486.33;117403;1183;23977;-63
2021/11/26 08:12:08;;;;;;;5.80;2.00;;;;;;;12.44;57.74;100487.70;117575;1185;21858;-63
2021/11/26 08:14:38;;;;;;;5.10;2.30;;;;;;;12.45;57.83;100488.92;117413;1185;21910;-50
2021/11/26 08:17:26;;;;;;;7.30;2.30;;;;;;;12.46;57.81;100483.44;117369;1185;21965;-58
2021/11/26 08:19:54;;;;;;;8.00;3.40;;;;;;;12.48;57.82;100483.05;117378;1180;23680;-63
2021/11/26 08:22:42;;;;;;;148.10;12.70;;;;;;;12.53;57.79;100472.77;117365;1182;23451;-49
2021/11/26 08:25:14;;;;;;;5.10;2.40;;;;;;;12.57;57.89;100464.05;117335;1183;23471;-63
2021/11/26 08:27:43;;;;;;;6.10;2.80;;;;;;;12.63;57.84;100459.71;117434;1182;24169;-64
2021/11/26 08:30:12;;;;;;;7.10;2.80;;;;;;;12.70;57.88;100455.01;117572;1185;22634;-50
2021/11/26 08:32:57;;;;;;;6.80;3.20;;;;;;;12.79;57.81;100446.38;117314;1182;24145;-64
2021/11/26 08:35:25;;;;;;;4.80;2.10;;;;;;;12.88;57.95;100435.27;117418;1184;21849;-64
2021/11/26 08:37:54;;;;;;;6.90;2.50;;;;;;;12.95;57.85;100421.21;117349;1182;23553;-64
2021/11/26 08:40:22;;;;;;;5.00;2.30;;;;;;;13.01;58.01;100413.16;117387;1185;23478;-50
2021/11/26 08:42:51;;;;;;;5.70;1.90;;;;;;;13.07;57.92;100408.80;117494;1180;22927;-65
2021/11/26 08:45:19;;;;;;;4.30;2.20;;;;;;;13.13;57.99;100401.09;117318;1185;22664;-64
2021/11/26 08:47:48;;;;;;;4.40;1.80;;;;;;;13.20;57.87;100397.06;117376;1179;21829;-51
2021/11/26 08:50:18;;;;;;;6.30;2.20;;;;;;;13.26;57.74;100393.39;117362;1183;21854;-62
2021/11/26 08:52:47;;;;;;;5.30;2.10;;;;;;;13.31;57.82;100389.39;117404;1182;23618;-65
2021/11/26 08:55:17;;;;;;;3.70;2.10;;;;;;;13.36;57.70;100385.75;117345;1182;22946;-63
2021/11/26 08:57:56;;;;;;;5.80;3.50;;;;;;;13.40;57.70;100380.56;117402;1185;21989;-51
2021/11/26 09:00:26;;;;;;;6.80;2.50;;;;;;;13.40;57.62;100378.45;117378;1179;21853;-65
2021/11/26 09:02:54;;;;;;;12.10;5.30;;;;;;;13.40;57.60;100379.85;117424;1177;24360;-51
2021/11/26 09:05:23;;;;;;;9.00;4.10;;;;;;;13.40;57.60;100373.33;117410;1182;23468;-64
2021/11/26 09:07:57;;;;;;;10.30;4.00;;;;;;;13.40;57.58;100367.34;117342;1183;23471;-52
2021/11/26 09:10:26;;;;;;;8.80;3.40;;;;;;;13.42;57.58;100364.50;117396;1176;21858;-52
2021/11/26 09:12:54;;;;;;;4.80;2.60;;;;;;;13.46;57.65;100360.17;117326;1185;22843;-65
2021/11/26 09:15:42;;;;;;;6.40;2.50;;;;;;;13.48;57.58;100350.23;117063;1185;21958;-50
2021/11/26 09:18:11;;;;;;;6.10;2.70;;;;;;;13.51;57.56;100348.39;117395;1179;21854;-51
2021/11/26 09:20:40;;;;;;;14.40;3.00;;;;;;;13.53;57.62;100352.93;117364;1185;23011;-63
2021/11/26 09:23:09;;;;;;;3.60;1.60;;;;;;;13.52;57.48;100341.69;117258;1185;24153;-65
2021/11/26 09:25:38;;;;;;;8.60;1.80;;;;;;;13.51;57.58;100341.89;117448;1176;21855;-51
2021/11/26 09:28:06;;;;;;;5.40;2.50;;;;;;;13.52;57.58;100338.52;117429;1185;21855;-51
2021/11/26 09:30:35;;;;;;;6.90;3.40;;;;;;;13.51;57.48;100340.48;117287;1185;24170;-50
2021/11/26 09:33:04;;;;;;;3.80;2.00;;;;;;;13.47;57.39;100339.70;117274;1185;22923;-66
2021/11/26 09:35:33;;;;;;;5.10;2.80;;;;;;;13.46;57.29;100337.98;117246;1185;23590;-65
2021/11/26 09:38:02;;;;;;;7.40;2.10;;;;;;;13.44;57.36;100336.98;117349;1184;21930;-52
2021/11/26 09:40:31;;;;;;;3.80;1.80;;;;;;;13.45;57.44;100335.38;117423;1184;21857;-64
2021/11/26 09:43:00;;;;;;;7.10;2.20;;;;;;;13.46;57.47;100332.84;117402;1183;23459;-64
2021/11/26 09:45:31;;;;;;;3.10;1.70;;;;;;;13.46;57.48;100319.27;117414;1185;22919;-52
2021/11/26 09:48:01;;;;;;;4.20;1.80;;;;;;;13.47;57.50;100316.96;117267;1185;23503;-52
2021/11/26 09:50:32;;;;;;;5.00;2.40;;;;;;;13.47;57.39;100319.06;117408;1183;21863;-64
2021/11/26 09:53:23;;;;;;;8.60;3.00;;;;;;;13.49;57.47;100317.60;117252;1183;23452;-52
2021/11/26 09:55:57;;;;;;;6.90;2.30;;;;;;;13.52;57.43;100313.48;117380;1185;24172;-64
2021/11/26 09:58:28;;;;;;;5.90;2.00;;;;;;;13.56;57.46;100311.64;117396;1185;23632;-63
2021/11/26 10:00:57;;;;;;;6.20;1.90;;;;;;;13.57;57.52;100303.66;117397;1185;23561;-50
2021/11/26 10:03:49;;;;;;;4.10;1.90;;;;;;;13.58;57.15;100300.46;117364;1182;24166;-64
2021/11/26 10:06:36;;;;;;;6.50;1.70;;;;;;;13.57;57.26;100290.27;117403;1185;22720;-64
2021/11/26 10:09:12;;;;;;;3.80;1.70;;;;;;;13.58;57.32;100288.14;117427;1186;21846;-52
2021/11/26 10:11:53;;;;;;;4.30;2.30;;;;;;;13.58;57.35;100280.02;117407;1185;22728;-65
2021/11/26 10:14:43;;;;;;;5.10;2.10;;;;;;;13.59;57.18;100265.72;117396;1186;23473;-64
2021/11/26 10:17:19;;;;;;;3.40;1.50;;;;;;;13.58;57.20;100263.27;117432;1186;22931;-63
2021/11/26 10:19:56;;;;;;;4.60;2.00;;;;;;;13.57;57.30;100264.17;117407;1185;22921;-64
2021/11/26 10:22:36;;;;;;;5.00;1.70;;;;;;;13.61;57.14;100258.96;117304;1185;21882;-50
2021/11/26 10:25:18;;;;;;;5.80;2.40;;;;;;;13.59;57.24;100262.55;117349;1176;23448;-63
2021/11/26 10:27:59;;;;;;;4.60;1.70;;;;;;;13.60;57.09;100260.21;117366;1185;23455;-64
2021/11/26 10:30:38;;;;;;;5.00;1.70;;;;;;;13.61;57.08;100255.98;117389;1185;23522;-51
2021/11/26 10:33:20;;;;;;;4.00;1.50;;;;;;;13.62;57.05;100249.77;117311;1184;21891;-63
2021/11/26 10:35:57;;;;;;;3.90;1.80;;;;;;;13.60;57.13;100245.95;117294;1182;21847;-63
2021/11/26 10:38:31;;;;;;;5.10;2.00;;;;;;;13.58;57.15;100242.98;117447;1186;23738;-52
2021/11/26 10:41:02;;;;;;;4.30;2.00;;;;;;;13.61;57.23;100242.05;117347;1183;23451;-64
2021/11/26 10:49:05;;;;;;;4.60;1.80;;;;;;;13.62;57.16;100236.38;117285;1182;24162;-63
2021/11/26 10:59:26;;;;;;;5.30;1.80;;;;;;;13.54;56.81;100236.58;117334;1185;21868;-64
2021/11/26 11:01:55;;;;;;;7.00;2.30;;;;;;;13.52;56.97;100229.05;117357;1176;23448;-52
2021/11/26 11:04:24;;;;;;;3.80;1.60;;;;;;;13.50;56.94;100229.28;117402;1185;22494;-64
2021/11/26 11:07:05;;;;;;;4.80;1.80;;;;;;;13.49;56.99;100225.08;117254;1185;21852;-51
2021/11/26 11:09:47;;;;;;;5.30;1.60;;;;;;;13.48;56.88;100221.92;117334;1184;21888;-51
2021/11/26 11:12:16;;;;;;;5.00;1.60;;;;;;;13.45;57.04;100218.48;117153;1186;21928;-51
2021/11/26 11:14:59;;;;;;;5.00;1.60;;;;;;;13.43;57.05;100219.44;117328;1185;22708;-51
2021/11/26 11:17:28;;;;;;;4.90;1.70;;;;;;;13.39;57.02;100217.20;117449;1186;22638;-64
2021/11/26 11:20:08;;;;;;;6.40;3.60;;;;;;;13.36;57.01;100206.89;117548;1185;21862;-52
2021/11/26 11:22:37;;;;;;;7.80;4.60;;;;;;;13.33;56.88;100199.91;117297;1183;23203;-52
2021/11/26 11:25:09;;;;;;;4.80;2.70;;;;;;;13.31;56.99;100184.80;117751;1182;22924;-51
2021/11/26 11:27:37;;;;;;;5.50;2.10;;;;;;;13.31;57.04;100175.83;117332;1185;21887;-64
2021/11/26 11:30:08;;;;;;;5.30;1.90;;;;;;;13.29;57.00;100164.59;117370;1185;22643;-65
2021/11/26 11:32:37;;;;;;;3.60;1.40;;;;;;;13.28;56.95;100149.83;117337;1182;23563;-51
2021/11/26 11:35:11;;;;;;;2.80;1.20;;;;;;;13.28;56.88;100141.36;117304;1183;21970;-64
2021/11/26 11:37:41;;;;;;;4.30;1.40;;;;;;;13.27;56.97;100137.16;117430;1180;22929;-65
2021/11/26 11:40:10;;;;;;;2.70;1.50;;;;;;;13.29;56.93;100137.30;117461;1184;21871;-64
2021/11/26 11:42:42;;;;;;;3.20;1.50;;;;;;;13.30;56.97;100131.63;117448;1183;21862;-50
2021/11/26 11:45:13;;;;;;;8.80;4.70;;;;;;;13.30;57.03;100133.56;117457;1186;21968;-63
2021/11/26 11:47:43;;;;;;;5.40;2.10;;;;;;;13.30;56.90;100135.86;117335;1185;22033;-65